Time;durP1;ratioP1;P1;durP2;ratioP2;P2;SDS_P1;SDS_P2;PMS_P1;PMS_P2;Temp;Humidity;BMP_temperature;BMP_pressure;BME280_temperature;BME280_humidity;BME280_pressure;Samples;Min_cycle;Max_cycle;Signal;HPM_P1;HPM_P2
2023/12/20 00:00:37;;;;;;;15.02;1.85;;;;;;;6.69;100.00;101601.38;10577304;28;20576;-75
2023/12/20 00:05:41;;;;;;;0.50;0.50;;;;;;;6.73;100.00;101607.28;10576568;28;20069;-75
2023/12/20 00:10:41;;;;;;;0.82;0.82;;;;;;;6.73;100.00;101600.09;10576750;28;20038;-75
2023/12/20 00:15:41;;;;;;;9.63;4.63;;;;;;;6.80;100.00;101586.84;10576336;28;20094;-75
2023/12/20 00:20:42;;;;;;;25.30;6.28;;;;;;;6.84;100.00;101598.97;10574987;28;20043;-75
2023/12/20 00:25:43;;;;;;;20.95;5.22;;;;;;;6.85;100.00;101586.34;10575786;28;20031;-75
2023/12/20 00:30:43;;;;;;;12.77;5.63;;;;;;;6.87;100.00;101587.06;10574717;28;20066;-75
2023/12/20 00:35:44;;;;;;;19.90;6.82;;;;;;;6.95;100.00;101587.94;10575187;28;20462;-75
2023/12/20 00:40:44;;;;;;;15.85;5.18;;;;;;;6.84;100.00;101595.44;10557392;28;20632;-75
2023/12/20 00:45:46;;;;;;;12.77;5.47;;;;;;;6.83;100.00;101591.03;10575764;28;20035;-74
2023/12/20 00:50:47;;;;;;;30.40;7.47;;;;;;;7.00;100.00;101600.97;10575255;28;20042;-76
2023/12/20 00:55:47;;;;;;;27.20;6.22;;;;;;;7.02;100.00;101587.31;10575539;28;20043;-75
2023/12/20 01:00:47;;;;;;;26.88;6.55;;;;;;;6.96;100.00;101586.97;10575301;28;20077;-75
2023/12/20 01:05:48;;;;;;;36.88;5.25;;;;;;;6.98;100.00;101595.72;10573058;28;20425;-75
2023/12/20 01:10:48;;;;;;;28.23;6.78;;;;;;;7.04;100.00;101602.31;10575037;28;20070;-75
2023/12/20 01:15:49;;;;;;;12.68;4.90;;;;;;;7.13;100.00;101596.00;10573831;28;20031;-75
2023/12/20 01:20:49;;;;;;;28.10;6.63;;;;;;;7.16;100.00;101595.69;10573862;28;20051;-74
2023/12/20 01:25:50;;;;;;;25.30;5.80;;;;;;;7.26;100.00;101600.13;10574816;28;20126;-75
2023/12/20 01:30:50;;;;;;;21.10;6.05;;;;;;;7.31;100.00;101598.66;10574395;28;20027;-75
2023/12/20 01:35:50;;;;;;;24.02;7.30;;;;;;;7.22;100.00;101586.13;10572793;28;20118;-74
2023/12/20 01:40:51;;;;;;;16.77;5.03;;;;;;;7.23;100.00;101585.13;10574587;28;20122;-74
2023/12/20 01:45:51;;;;;;;21.35;5.20;;;;;;;7.25;100.00;101576.88;10575249;28;20046;-75
2023/12/20 01:50:52;;;;;;;20.65;5.80;;;;;;;7.31;100.00;101589.72;10580240;28;20038;-74
2023/12/20 01:55:52;;;;;;;14.75;7.00;;;;;;;7.39;100.00;101587.91;10583836;28;20126;-75
2023/12/20 02:00:53;;;;;;;16.55;6.57;;;;;;;7.32;100.00;101575.25;10564257;28;20118;-75
2023/12/20 02:05:53;;;;;;;18.23;4.38;;;;;;;7.22;100.00;101575.34;10581372;28;20604;-75
2023/12/20 02:10:54;;;;;;;23.20;6.60;;;;;;;7.10;100.00;101573.94;10581035;28;20053;-75
2023/12/20 02:15:55;;;;;;;20.75;6.15;;;;;;;7.06;100.00;101581.47;10581095;28;20467;-75
2023/12/20 02:20:56;;;;;;;14.07;5.93;;;;;;;6.90;100.00;101581.38;10580735;28;20122;-75
2023/12/20 02:25:56;;;;;;;18.58;4.13;;;;;;;6.73;100.00;101578.53;10580612;28;20528;-75
2023/12/20 02:30:57;;;;;;;46.70;6.35;;;;;;;6.78;100.00;101588.00;10578801;28;20150;-74
2023/12/20 02:35:57;;;;;;;28.33;5.25;;;;;;;6.88;100.00;101577.97;10579881;28;20034;-74
2023/12/20 02:40:58;;;;;;;13.25;6.20;;;;;;;7.05;100.00;101566.34;10578978;28;20177;-75
2023/12/20 02:45:58;;;;;;;10.55;4.75;;;;;;;7.20;100.00;101569.28;10580333;28;20053;-75
2023/12/20 02:50:58;;;;;;;10.52;4.57;;;;;;;7.22;100.00;101572.66;10579711;28;20038;-75
2023/12/20 02:55:59;;;;;;;28.20;8.93;;;;;;;7.29;100.00;101554.00;10578042;28;20026;-75
2023/12/20 03:00:59;;;;;;;15.82;4.85;;;;;;;7.35;100.00;101556.06;10577792;28;20040;-74
2023/12/20 03:06:00;;;;;;;34.70;8.43;;;;;;;7.38;100.00;101563.81;10577154;28;20036;-75
2023/12/20 03:11:00;;;;;;;15.70;4.97;;;;;;;7.31;100.00;101547.47;10578877;28;20063;-75
2023/12/20 03:16:01;;;;;;;12.43;5.55;;;;;;;7.26;100.00;101557.03;10579001;28;20126;-74
2023/12/20 03:21:01;;;;;;;18.75;5.00;;;;;;;7.29;100.00;101559.41;10560230;28;20045;-74
2023/12/20 03:26:02;;;;;;;20.45;5.35;;;;;;;7.19;100.00;101565.72;10577067;28;20023;-75
2023/12/20 03:31:03;;;;;;;24.08;5.57;;;;;;;7.05;100.00;101558.25;10578014;28;20027;-74
2023/12/20 03:36:03;;;;;;;20.90;5.45;;;;;;;6.98;100.00;101557.16;10577906;28;20100;-74
2023/12/20 03:41:04;;;;;;;14.80;5.13;;;;;;;6.95;100.00;101550.25;10578018;28;20059;-74
2023/12/20 03:46:04;;;;;;;25.25;4.32;;;;;;;6.83;100.00;101554.22;10577727;28;20067;-74
2023/12/20 03:51:05;;;;;;;12.70;5.75;;;;;;;6.70;100.00;101560.03;10577655;28;20027;-74
2023/12/20 03:56:05;;;;;;;15.88;6.10;;;;;;;6.68;100.00;101548.56;10577293;28;20071;-74
2023/12/20 04:01:10;;;;;;;18.10;6.30;;;;;;;6.73;100.00;101548.94;10577145;28;20093;-74
2023/12/20 04:06:16;;;;;;;20.13;6.63;;;;;;;6.84;100.00;101547.84;10575084;28;20036;-74
2023/12/20 04:11:17;;;;;;;19.33;6.40;;;;;;;6.89;100.00;101533.88;10576010;28;20057;-74
2023/12/20 04:16:17;;;;;;;27.65;6.07;;;;;;;6.76;100.00;101534.28;10574937;28;20060;-74
2023/12/20 04:21:18;;;;;;;14.05;5.53;;;;;;;6.80;100.00;101542.94;10575788;28;20071;-74
2023/12/20 04:26:18;;;;;;;25.55;6.43;;;;;;;6.65;100.00;101524.66;10557564;28;20031;-74
2023/12/20 04:31:18;;;;;;;15.82;6.32;;;;;;;6.59;100.00;101519.88;10574538;28;20387;-74
2023/12/20 04:36:19;;;;;;;16.02;5.50;;;;;;;6.51;100.00;101522.53;10575122;28;20039;-74
2023/12/20 04:41:19;;;;;;;25.13;5.35;;;;;;;6.50;100.00;101518.13;10575581;28;20413;-74
2023/12/20 04:46:20;;;;;;;17.92;5.80;;;;;;;6.59;100.00;101517.19;10575668;28;20054;-74
2023/12/20 04:51:20;;;;;;;19.95;5.28;;;;;;;6.74;100.00;101506.72;10575594;28;20032;-75
2023/12/20 04:56:20;;;;;;;24.77;4.60;;;;;;;6.82;100.00;101514.81;10575417;28;20059;-74
2023/12/20 05:01:21;;;;;;;22.35;4.68;;;;;;;6.79;100.00;101508.91;10556634;28;20425;-74
2023/12/20 05:06:21;;;;;;;11.10;3.55;;;;;;;6.72;100.00;101519.47;10573281;28;20084;-74
2023/12/20 05:11:22;;;;;;;18.92;6.13;;;;;;;6.67;100.00;101528.03;10574765;28;20092;-74
2023/12/20 05:16:22;;;;;;;16.23;4.25;;;;;;;6.62;100.00;101524.13;10575006;28;20040;-74
2023/12/20 05:21:23;;;;;;;25.90;7.65;;;;;;;6.69;100.00;101531.38;10575966;28;20532;-74
2023/12/20 05:26:23;;;;;;;9.25;5.13;;;;;;;6.66;100.00;101539.78;10582814;28;20042;-74
2023/12/20 05:31:23;;;;;;;17.67;4.45;;;;;;;6.65;100.00;101513.88;10582545;28;20040;-74
2023/12/20 05:36:24;;;;;;;29.33;6.00;;;;;;;6.79;100.00;101514.31;10582257;28;20312;-75
2023/12/20 05:41:24;;;;;;;31.33;6.38;;;;;;;7.03;100.00;101511.78;10582788;28;20058;-74
2023/12/20 05:46:25;;;;;;;18.23;6.60;;;;;;;7.09;100.00;101483.38;10580940;28;20047;-74
2023/12/20 05:51:26;;;;;;;24.17;8.23;;;;;;;6.94;100.00;101493.88;10581173;28;20040;-74
2023/12/20 05:56:27;;;;;;;19.02;5.90;;;;;;;6.88;100.00;101497.19;10581805;28;20119;-72
2023/12/20 06:01:27;;;;;;;20.83;6.18;;;;;;;7.11;100.00;101509.13;10518593;28;20082;-74
2023/12/20 06:06:28;;;;;;;28.90;6.38;;;;;;;7.29;100.00;101509.06;10579168;28;20236;-74
2023/12/20 06:11:28;;;;;;;9.05;4.60;;;;;;;7.42;100.00;101511.28;10581065;28;20126;-74
2023/12/20 06:16:29;;;;;;;21.20;5.90;;;;;;;7.55;100.00;101519.78;10580783;28;20071;-74
2023/12/20 06:21:29;;;;;;;9.70;5.63;;;;;;;7.61;100.00;101505.63;10579371;28;20043;-73
2023/12/20 06:26:30;;;;;;;24.30;6.82;;;;;;;7.69;100.00;101500.28;10580324;28;20120;-73
2023/12/20 06:31:32;;;;;;;18.35;5.22;;;;;;;7.67;100.00;101502.28;10579135;28;20067;-73
2023/12/20 06:36:32;;;;;;;18.95;5.78;;;;;;;7.69;100.00;101497.59;10579439;28;20519;-73
2023/12/20 06:41:33;;;;;;;20.75;5.18;;;;;;;7.45;100.00;101508.28;10579635;28;20060;-73
2023/12/20 06:46:33;;;;;;;25.95;7.25;;;;;;;7.31;100.00;101508.91;10579592;28;20321;-74
2023/12/20 06:51:34;;;;;;;23.45;5.88;;;;;;;7.12;100.00;101489.28;10579928;28;20035;-74
2023/12/20 06:56:34;;;;;;;25.17;6.30;;;;;;;7.09;100.00;101486.91;10578149;28;20106;-74
2023/12/20 07:01:35;;;;;;;17.58;5.85;;;;;;;6.96;100.00;101484.66;10579033;28;20115;-73
2023/12/20 07:06:35;;;;;;;14.43;6.20;;;;;;;6.91;100.00;101472.66;10594222;27;20084;-73
2023/12/20 07:11:36;;;;;;;21.10;5.50;;;;;;;6.86;100.00;101472.28;10578681;28;20042;-73
2023/12/20 07:16:36;;;;;;;20.13;6.65;;;;;;;6.85;100.00;101470.59;10578499;28;20039;-73
2023/12/20 07:21:37;;;;;;;17.65;6.65;;;;;;;6.82;100.00;101455.59;10577820;28;20070;-73
2023/12/20 07:26:38;;;;;;;25.52;6.82;;;;;;;6.79;100.00;101465.84;10576470;28;20036;-73
2023/12/20 07:31:39;;;;;;;12.02;5.82;;;;;;;6.75;100.00;101484.16;10577303;28;20063;-73
2023/12/20 07:36:39;;;;;;;17.00;5.07;;;;;;;6.78;100.00;101485.72;10577523;28;20047;-73
2023/12/20 07:41:40;;;;;;;22.88;5.72;;;;;;;6.83;100.00;101495.00;10577349;28;20104;-73
2023/12/20 07:46:40;;;;;;;28.20;7.38;;;;;;;6.88;100.00;101486.44;10576602;28;20124;-73
2023/12/20 07:51:44;;;;;;;35.63;7.65;;;;;;;7.00;100.00;101490.56;10576982;28;20038;-73
2023/12/20 07:56:46;;;;;;;14.90;6.00;;;;;;;7.08;100.00;101487.88;10576252;28;20118;-73
2023/12/20 08:01:46;;;;;;;23.00;6.57;;;;;;;7.16;100.00;101496.03;10576787;28;20425;-73
2023/12/20 08:06:47;;;;;;;22.83;5.57;;;;;;;7.23;100.00;101497.06;10576201;28;20089;-73
2023/12/20 08:11:47;;;;;;;14.57;5.28;;;;;;;7.41;100.00;101505.06;10577189;28;20462;-73
2023/12/20 08:16:48;;;;;;;25.27;7.13;;;;;;;7.49;100.00;101487.25;10592226;27;20483;-73
2023/12/20 08:21:48;;;;;;;22.85;5.63;;;;;;;7.58;100.00;101500.56;10575833;28;20467;-73
2023/12/20 08:26:49;;;;;;;9.65;4.63;;;;;;;7.85;100.00;101499.50;10576113;28;20108;-73
2023/12/20 08:31:54;;;;;;;18.80;5.97;;;;;;;7.97;100.00;101494.59;10575365;28;20114;-73
2023/12/20 08:36:54;;;;;;;27.60;6.22;;;;;;;7.86;100.00;101484.16;10575113;28;20122;-74
2023/12/20 08:41:54;;;;;;;14.48;5.25;;;;;;;7.98;100.00;101490.91;10574144;28;20172;-73
2023/12/20 08:46:57;;;;;;;20.48;5.00;;;;;;;8.04;100.00;101481.28;10575869;28;20084;-73
2023/12/20 08:51:57;;;;;;;23.50;5.78;;;;;;;8.15;100.00;101492.63;10574270;28;20036;-73
2023/12/20 08:56:57;;;;;;;20.13;5.15;;;;;;;8.35;100.00;101481.50;10577926;28;20135;-73
2023/12/20 09:01:58;;;;;;;11.57;5.85;;;;;;;8.49;100.00;101488.13;10583908;28;20106;-73
2023/12/20 09:06:59;;;;;;;20.05;6.38;;;;;;;8.60;100.00;101491.28;10583749;28;20039;-74
2023/12/20 09:12:00;;;;;;;25.50;6.82;;;;;;;8.64;100.00;101477.47;10583512;28;20032;-74
2023/12/20 09:17:01;;;;;;;17.75;7.47;;;;;;;8.72;100.00;101470.19;10582101;28;20035;-74
2023/12/20 09:22:01;;;;;;;19.27;4.85;;;;;;;8.75;100.00;101480.66;10583152;28;20100;-73
2023/12/20 09:27:02;;;;;;;15.30;4.90;;;;;;;8.74;100.00;101484.38;10581442;28;20165;-73
2023/12/20 09:32:03;;;;;;;28.30;8.88;;;;;;;8.81;100.00;101481.84;10581314;28;20077;-73
2023/12/20 09:37:03;;;;;;;14.20;4.45;;;;;;;8.83;100.00;101474.38;10581846;28;20096;-73
2023/12/20 09:42:05;;;;;;;26.15;7.05;;;;;;;8.67;100.00;101463.63;10581920;28;20044;-73
2023/12/20 09:47:05;;;;;;;12.88;5.00;;;;;;;8.59;100.00;101484.22;10597631;27;20080;-73
2023/12/20 09:52:06;;;;;;;8.30;4.38;;;;;;;8.82;100.00;101497.03;10597326;27;20066;-73
2023/12/20 09:57:06;;;;;;;33.50;6.65;;;;;;;8.82;100.00;101505.97;10563042;28;20039;-73
2023/12/20 10:02:08;;;;;;;10.50;4.50;;;;;;;8.76;100.00;101490.44;10580806;28;20505;-75
2023/12/20 10:07:08;;;;;;;8.60;3.85;;;;;;;8.89;100.00;101497.16;10562361;28;20093;-74
2023/12/20 10:12:09;;;;;;;13.43;4.72;;;;;;;9.30;100.00;101497.91;10579107;28;20031;-74
2023/12/20 10:17:09;;;;;;;14.85;5.68;;;;;;;9.37;100.00;101492.63;10580685;28;20031;-73
2023/12/20 10:22:10;;;;;;;14.15;5.22;;;;;;;9.42;100.00;101480.28;10581494;28;20530;-73
2023/12/20 10:27:10;;;;;;;10.70;4.80;;;;;;;9.47;100.00;101472.47;10579826;28;20109;-73
2023/12/20 10:32:29;;;;;;;15.70;5.18;;;;;;;9.58;100.00;101483.94;10579506;28;20036;-73
2023/12/20 10:37:30;;;;;;;13.95;6.07;;;;;;;9.61;100.00;101479.03;10580350;28;20046;-73
2023/12/20 10:42:30;;;;;;;17.85;5.03;;;;;;;9.61;100.00;101470.06;10579715;28;20335;-73
2023/12/20 10:47:31;;;;;;;14.18;4.80;;;;;;;9.57;100.00;101463.31;10561163;28;20035;-74
2023/12/20 10:52:32;;;;;;;13.40;4.38;;;;;;;9.77;100.00;101460.00;10561130;28;20035;-74
2023/12/20 10:57:32;;;;;;;21.60;5.80;;;;;;;10.10;100.00;101450.81;10579271;28;20080;-73
2023/12/20 11:02:33;;;;;;;17.83;5.10;;;;;;;10.18;100.00;101454.28;10577362;28;20096;-73
2023/12/20 11:07:37;;;;;;;17.25;5.95;;;;;;;10.39;100.00;101447.38;10577593;28;20080;-73
2023/12/20 11:12:41;;;;;;;8.93;3.40;;;;;;;10.28;100.00;101426.19;10577094;28;20049;-74
2023/12/20 11:17:44;;;;;;;21.55;4.97;;;;;;;10.16;100.00;101415.72;10560431;28;20028;-74
2023/12/20 11:22:52;;;;;;;16.58;4.82;;;;;;;9.98;100.00;101409.78;10577289;28;20028;-73
2023/12/20 11:28:12;;;;;;;11.65;4.60;;;;;;;9.96;100.00;101410.00;10576956;28;20038;-74
2023/12/20 11:33:16;;;;;;;14.95;4.90;;;;;;;9.99;100.00;101406.91;10578115;28;20110;-74
2023/12/20 11:38:16;;;;;;;14.02;4.47;;;;;;;10.02;100.00;101411.97;10576079;28;20043;-74
2023/12/20 11:43:30;;;;;;;15.40;3.65;;;;;;;10.12;100.00;101410.88;10575748;28;20052;-73
2023/12/20 11:48:31;;;;;;;6.05;2.90;;;;;;;10.16;100.00;101417.59;10593472;27;20509;-73
2023/12/20 11:53:33;;;;;;;14.02;5.00;;;;;;;10.09;100.00;101412.09;10575471;28;20119;-74
2023/12/20 11:58:34;;;;;;;14.18;4.97;;;;;;;10.07;100.00;101407.88;10575454;28;20036;-74
2023/12/20 12:03:34;;;;;;;18.88;5.00;;;;;;;10.15;100.00;101405.09;10576532;28;20106;-74
2023/12/20 12:08:35;;;;;;;26.90;5.43;;;;;;;10.47;100.00;101404.84;10575182;28;20039;-74
2023/12/20 12:13:36;;;;;;;15.65;3.13;;;;;;;10.37;100.00;101393.44;10575080;28;20551;-73
2023/12/20 12:18:36;;;;;;;8.02;3.55;;;;;;;10.24;100.00;101388.63;10574912;28;20032;-74
2023/12/20 12:23:37;;;;;;;10.60;4.30;;;;;;;10.17;100.00;101381.38;10576224;28;20123;-74
2023/12/20 12:28:40;;;;;;;10.13;5.10;;;;;;;10.12;100.00;101389.25;10574718;28;20070;-74
2023/12/20 12:33:41;;;;;;;19.83;4.78;;;;;;;10.04;100.00;101371.19;10575010;28;20040;-74
2023/12/20 12:38:41;;;;;;;16.65;4.32;;;;;;;10.05;100.00;101388.25;10574768;28;20032;-74
2023/12/20 12:43:43;;;;;;;5.60;4.13;;;;;;;10.13;100.00;101380.09;10575750;28;20521;-74
2023/12/20 12:48:43;;;;;;;13.02;5.82;;;;;;;10.12;100.00;101378.41;10575545;28;20047;-74
2023/12/20 12:53:44;;;;;;;16.10;4.95;;;;;;;9.91;100.00;101366.38;10574138;28;20176;-74
2023/12/20 12:58:44;;;;;;;12.00;5.00;;;;;;;9.84;100.00;101354.63;10573773;28;20032;-74
2023/12/20 13:03:48;;;;;;;11.90;4.35;;;;;;;9.86;100.00;101347.19;10575155;28;20092;-73
2023/12/20 13:08:48;;;;;;;11.80;4.57;;;;;;;9.75;100.00;101324.09;10575142;28;20032;-74
2023/12/20 13:13:49;;;;;;;13.20;5.35;;;;;;;9.75;100.00;101324.09;10573487;28;20340;-73
2023/12/20 13:18:49;;;;;;;13.30;4.82;;;;;;;9.72;100.00;101310.09;10575432;28;20027;-73
2023/12/20 13:23:50;;;;;;;13.93;4.03;;;;;;;9.75;100.00;101304.31;10573431;28;20535;-74
2023/12/20 13:28:50;;;;;;;12.00;4.18;;;;;;;9.73;100.00;101295.53;10573325;28;20039;-73
2023/12/20 13:33:52;;;;;;;15.55;5.88;;;;;;;9.69;100.00;101295.06;10589782;28;20038;-73
2023/12/20 13:38:53;;;;;;;17.45;5.75;;;;;;;9.69;100.00;101291.53;10574705;28;20088;-73
2023/12/20 13:43:54;;;;;;;20.65;5.55;;;;;;;9.65;100.00;101274.00;10576161;28;20487;-74
2023/12/20 13:48:54;;;;;;;12.65;5.43;;;;;;;9.61;100.00;101269.97;10580489;28;20043;-74
2023/12/20 13:53:55;;;;;;;11.20;3.40;;;;;;;9.54;100.00;101257.19;10581354;28;20479;-74
2023/12/20 13:58:55;;;;;;;8.48;3.63;;;;;;;9.46;100.00;101249.13;10580920;28;20019;-74
2023/12/20 14:03:56;;;;;;;13.98;4.55;;;;;;;9.37;100.00;101260.19;10578946;28;20483;-73
2023/12/20 14:08:56;;;;;;;15.60;5.20;;;;;;;9.40;100.00;101259.81;10580576;28;20536;-74
2023/12/20 14:13:57;;;;;;;5.53;2.75;;;;;;;9.44;100.00;101253.03;10579033;28;20226;-73
2023/12/20 14:18:58;;;;;;;19.50;5.32;;;;;;;9.34;100.00;101238.94;10580434;28;20394;-73
2023/12/20 14:23:58;;;;;;;27.73;4.95;;;;;;;9.29;100.00;101243.03;10580374;28;20039;-73
2023/12/20 14:28:59;;;;;;;9.45;4.13;;;;;;;9.29;100.00;101275.44;10579625;28;20070;-73
2023/12/20 14:34:03;;;;;;;22.48;6.25;;;;;;;9.28;100.00;101272.91;10578871;28;20117;-73
2023/12/20 14:39:04;;;;;;;22.45;6.50;;;;;;;9.25;100.00;101279.53;10578567;28;20051;-74
2023/12/20 14:44:04;;;;;;;18.17;4.45;;;;;;;9.29;100.00;101269.22;10578369;28;20126;-73
2023/12/20 14:49:05;;;;;;;22.67;4.03;;;;;;;9.23;100.00;101267.22;10580250;28;20052;-73
2023/12/20 14:54:10;;;;;;;12.15;4.78;;;;;;;9.18;100.00;101262.34;10577502;28;20040;-73
2023/12/20 14:59:10;;;;;;;19.33;5.00;;;;;;;9.08;100.00;101245.53;10579177;28;20058;-73
2023/12/20 15:04:11;;;;;;;14.15;4.05;;;;;;;8.94;100.00;101236.34;10578685;28;20122;-73
2023/12/20 15:09:11;;;;;;;12.05;4.22;;;;;;;8.90;100.00;101234.16;10577062;28;20482;-73
2023/12/20 15:14:15;;;;;;;11.45;4.40;;;;;;;8.84;100.00;101241.16;10593822;27;20064;-74
2023/12/20 15:19:15;;;;;;;23.23;5.82;;;;;;;8.73;100.00;101242.38;10576876;28;20032;-73
2023/12/20 15:24:18;;;;;;;9.43;3.45;;;;;;;8.79;100.00;101254.31;10576705;28;20040;-73
2023/12/20 15:29:25;;;;;;;22.20;5.22;;;;;;;8.75;100.00;101245.75;10577326;28;20539;-73
2023/12/20 15:34:25;;;;;;;6.57;3.78;;;;;;;8.72;100.00;101269.56;10574843;28;20032;-73
2023/12/20 15:39:26;;;;;;;10.45;5.47;;;;;;;8.69;100.00;101251.84;10576790;28;20649;-73
2023/12/20 15:44:26;;;;;;;10.65;4.75;;;;;;;8.69;100.00;101245.59;10576143;28;20048;-73
2023/12/20 15:49:26;;;;;;;15.40;5.47;;;;;;;8.70;100.00;101234.63;10592116;27;20483;-72
2023/12/20 15:54:27;;;;;;;24.48;5.20;;;;;;;8.57;100.00;101199.25;10576350;28;20067;-72
2023/12/20 15:59:28;;;;;;;17.73;5.88;;;;;;;8.51;100.00;101194.56;10575013;28;20032;-72
2023/12/20 16:04:28;;;;;;;10.80;4.80;;;;;;;8.46;100.00;101184.31;10575361;28;20515;-72
2023/12/20 16:09:28;;;;;;;15.68;5.82;;;;;;;8.48;100.00;101194.91;10573474;28;20047;-72
2023/12/20 16:14:29;;;;;;;16.23;4.57;;;;;;;8.38;100.00;101184.34;10575426;28;20039;-73
2023/12/20 16:19:30;;;;;;;16.67;5.65;;;;;;;8.41;100.00;101180.47;10574073;28;20242;-72
2023/12/20 16:24:31;;;;;;;15.68;5.40;;;;;;;8.37;100.00;101175.38;10575305;28;20047;-74
2023/12/20 16:29:31;;;;;;;23.60;5.78;;;;;;;8.43;100.00;101160.38;10573540;28;20042;-73
2023/12/20 16:34:32;;;;;;;0.40;0.40;;;;;;;8.46;100.00;101157.31;10575014;28;20035;-73
2023/12/20 16:39:32;;;;;;;0.43;0.43;;;;;;;8.45;100.00;101144.00;10574743;28;20032;-73
2023/12/20 16:44:33;;;;;;;0.40;0.40;;;;;;;8.40;100.00;101125.66;10574756;28;20067;-73
2023/12/20 16:49:34;;;;;;;0.57;0.57;;;;;;;8.39;100.00;101123.94;10573928;28;20038;-73
2023/12/20 16:54:34;;;;;;;0.98;0.98;;;;;;;8.36;100.00;101102.72;10573461;28;20039;-73
2023/12/20 16:59:34;;;;;;;0.45;0.45;;;;;;;8.36;100.00;101091.91;10575086;28;20036;-72
2023/12/20 17:04:35;;;;;;;0.50;0.50;;;;;;;8.34;100.00;101075.91;10574463;28;20123;-73
2023/12/20 17:09:36;;;;;;;1.48;1.48;;;;;;;8.40;100.00;101070.84;10575295;28;20040;-73
2023/12/20 17:14:36;;;;;;;0.20;0.20;;;;;;;8.47;100.00;101075.34;10572981;28;20074;-73
2023/12/20 17:19:37;;;;;;;0.47;0.47;;;;;;;8.51;100.00;101059.63;10580069;28;20092;-74
2023/12/20 17:24:37;;;;;;;0.68;0.68;;;;;;;8.50;100.00;101063.34;10580907;28;20056;-73
2023/12/20 17:29:38;;;;;;;0.75;0.73;;;;;;;8.57;100.00;101051.63;10580607;28;20040;-74
2023/12/20 17:34:39;;;;;;;0.35;0.35;;;;;;;8.60;100.00;101050.44;10581580;28;20031;-73
2023/12/20 17:39:39;;;;;;;0.40;0.40;;;;;;;8.63;100.00;101046.53;10581780;28;20491;-73
2023/12/20 17:44:40;;;;;;;3.67;1.00;;;;;;;8.65;100.00;101042.66;10581891;28;20122;-73
2023/12/20 17:49:40;;;;;;;2.40;1.73;;;;;;;8.68;100.00;101036.88;10581360;28;20036;-73
2023/12/20 17:54:41;;;;;;;0.30;0.30;;;;;;;8.75;100.00;101020.81;10579942;28;20104;-73
2023/12/20 17:59:41;;;;;;;1.80;1.73;;;;;;;8.82;100.00;101043.34;10579739;28;20539;-73
2023/12/20 18:04:42;;;;;;;0.50;0.50;;;;;;;8.81;100.00;101020.06;10580516;28;20082;-74
2023/12/20 18:09:43;;;;;;;0.43;0.43;;;;;;;8.81;100.00;101023.59;10580767;28;20051;-74
2023/12/20 18:14:46;;;;;;;0.47;0.47;;;;;;;8.89;100.00;101017.28;10580631;28;20048;-73
2023/12/20 18:19:47;;;;;;;2.25;2.15;;;;;;;8.93;100.00;101021.28;10579082;28;20039;-73
2023/12/20 18:24:48;;;;;;;0.40;0.40;;;;;;;8.95;100.00;101008.44;10580165;28;20055;-73
2023/12/20 18:29:48;;;;;;;0.60;0.60;;;;;;;8.97;100.00;101014.50;10579421;28;20088;-72
2023/12/20 18:34:49;;;;;;;0.95;0.95;;;;;;;8.96;100.00;101006.56;10579492;28;20032;-73
2023/12/20 18:39:50;;;;;;;0.55;0.55;;;;;;;9.00;100.00;101000.63;10579718;28;20059;-73
2023/12/20 18:44:51;;;;;;;0.55;0.55;;;;;;;8.98;100.00;100991.03;10579014;28;20453;-73
2023/12/20 18:49:52;;;;;;;0.82;0.80;;;;;;;9.09;100.00;100990.56;10595012;27;20051;-72
2023/12/20 18:54:53;;;;;;;0.45;0.45;;;;;;;9.05;100.00;100971.19;10579076;28;20035;-73
2023/12/20 18:59:53;;;;;;;0.40;0.40;;;;;;;9.06;100.00;100981.00;10577558;28;20032;-73
2023/12/20 19:04:53;;;;;;;1.15;1.15;;;;;;;9.06;100.00;100962.09;10594175;27;20561;-72
2023/12/20 19:09:54;;;;;;;0.50;0.50;;;;;;;8.99;100.00;100947.63;10577298;28;20063;-73
2023/12/20 19:14:54;;;;;;;7.78;3.30;;;;;;;8.97;100.00;100940.75;10578037;28;20043;-73
2023/12/20 19:19:55;;;;;;;0.40;0.40;;;;;;;8.94;100.00;100935.72;10578374;28;20114;-72
2023/12/20 19:24:55;;;;;;;0.50;0.50;;;;;;;9.02;100.00;100936.44;10578449;28;20490;-72
2023/12/20 19:29:57;;;;;;;0.40;0.40;;;;;;;9.07;100.00;100928.63;10577742;28;20043;-72
2023/12/20 19:34:58;;;;;;;0.38;0.38;;;;;;;9.15;100.00;100910.63;10575739;28;20035;-73
2023/12/20 19:39:59;;;;;;;0.45;0.45;;;;;;;9.18;100.00;100908.41;10576423;28;20032;-72
2023/12/20 19:45:01;;;;;;;0.40;0.40;;;;;;;9.24;100.00;100898.69;10576802;28;20056;-73
2023/12/20 19:50:05;;;;;;;0.95;0.95;;;;;;;9.31;100.00;100902.31;10576986;28;20089;-72
2023/12/20 19:55:05;;;;;;;0.40;0.40;;;;;;;9.34;100.00;100899.25;10576661;28;20115;-74
2023/12/20 20:00:06;;;;;;;0.70;0.70;;;;;;;9.40;100.00;100881.44;10577167;28;20032;-72
2023/12/20 20:05:09;;;;;;;0.40;0.40;;;;;;;9.42;100.00;100885.63;10575734;27;20031;-73
2023/12/20 20:10:10;;;;;;;0.60;0.60;;;;;;;9.47;100.00;100901.25;10576075;28;20042;-73
2023/12/20 20:15:10;;;;;;;6.50;3.85;;;;;;;9.56;100.00;100902.81;10571498;28;20045;-76
2023/12/20 20:20:10;;;;;;;11.52;3.75;;;;;;;9.62;100.00;100904.75;10575492;28;20604;-73
2023/12/20 20:25:11;;;;;;;10.25;3.35;;;;;;;9.68;100.00;100905.88;10574487;28;20027;-73
2023/12/20 20:30:12;;;;;;;6.07;3.70;;;;;;;9.71;100.00;100903.63;10575052;28;20039;-72
2023/12/20 20:35:12;;;;;;;14.77;3.42;;;;;;;9.77;100.00;100891.22;10558925;28;20035;-73
2023/12/20 20:40:17;;;;;;;11.65;4.50;;;;;;;9.72;100.00;100872.84;10575315;28;20482;-73
2023/12/20 20:45:18;;;;;;;8.68;4.20;;;;;;;9.73;100.00;100889.91;10574902;28;20388;-76
2023/12/20 20:50:18;;;;;;;11.70;2.88;;;;;;;9.76;100.00;100862.47;10531085;28;20032;-74
2023/12/20 20:55:19;;;;;;;11.02;3.60;;;;;;;9.82;100.00;100874.38;10532914;28;20039;-74
2023/12/20 21:00:20;;;;;;;26.48;5.78;;;;;;;9.85;100.00;100853.19;10532795;28;20093;-73
2023/12/20 21:05:20;;;;;;;10.23;4.03;;;;;;;9.86;100.00;100827.84;10531071;28;20028;-74
2023/12/20 21:10:21;;;;;;;13.10;4.05;;;;;;;9.84;100.00;100823.66;10531514;28;20035;-74
2023/12/20 21:15:21;;;;;;;21.63;3.63;;;;;;;9.83;100.00;100817.41;10532656;28;20056;-74
2023/12/20 21:20:24;;;;;;;11.07;4.40;;;;;;;9.86;100.00;100816.16;10531151;28;20099;-74
2023/12/20 21:25:25;;;;;;;5.90;3.92;;;;;;;9.83;100.00;100816.56;10532955;28;20046;-74
2023/12/20 21:30:26;;;;;;;9.98;3.38;;;;;;;9.88;100.00;100814.13;10532227;28;20528;-73
2023/12/20 21:35:27;;;;;;;15.93;3.88;;;;;;;9.93;100.00;100823.31;10530337;28;20043;-74
2023/12/20 21:40:28;;;;;;;6.07;3.92;;;;;;;9.94;100.00;100814.16;10531874;28;20047;-73
2023/12/20 21:45:29;;;;;;;10.15;5.25;;;;;;;9.97;100.00;100818.34;10513939;28;20143;-74
2023/12/20 21:50:29;;;;;;;5.57;3.53;;;;;;;9.95;100.00;100805.00;10531744;28;20042;-74
2023/12/20 21:55:31;;;;;;;12.98;4.68;;;;;;;9.99;100.00;100800.91;10531916;28;20133;-74
2023/12/20 22:00:32;;;;;;;12.48;5.13;;;;;;;10.07;100.00;100809.91;10514331;28;20259;-73
2023/12/20 22:05:33;;;;;;;19.25;3.15;;;;;;;10.05;100.00;100804.69;10535431;28;20123;-75
2023/12/20 22:10:33;;;;;;;8.63;3.63;;;;;;;10.08;100.00;100815.09;10538505;28;20115;-74
2023/12/20 22:15:34;;;;;;;14.88;4.30;;;;;;;10.08;100.00;100808.84;10537312;28;20408;-74
2023/12/20 22:20:37;;;;;;;10.48;3.38;;;;;;;10.05;100.00;100788.47;10537321;28;20059;-74
2023/12/20 22:25:37;;;;;;;10.43;3.90;;;;;;;10.02;100.00;100800.50;10538298;28;20090;-75
2023/12/20 22:30:38;;;;;;;20.55;4.40;;;;;;;10.05;100.00;100776.78;10537999;28;20121;-74
2023/12/20 22:35:38;;;;;;;22.48;4.53;;;;;;;10.00;100.00;100786.34;10537672;28;20479;-74
2023/12/20 22:40:38;;;;;;;9.20;3.97;;;;;;;10.08;100.00;100796.16;10537722;28;20086;-74
2023/12/20 22:45:41;;;;;;;5.97;2.85;;;;;;;10.10;100.00;100777.88;10537782;28;20052;-74